Startpagina
METAR-TAF:

METAR-TAF

Vliegvelden :

Flughafen Frankfurt-Hahn

Hahn, Duitsland

breedte: 49-57N, lengte: 007-16E, hoogte: 491 m

Actueel weer

Dit bericht is 27 minuten geleden gemaakt, om 04:50 UTC
Wind 1 kt uit variabele richting
Temperatuur -4°C
Vochtigheid 68%
Druk 1024 hPa
Zicht 10 km of meer
geen wolken onder 1500 m en geen cumulonimbus

METAR: EDFH 070450Z VRB01KT CAVOK M04/M09 Q1024

Tijdstip: 06:17 (05:17 UTC)

Verwachting

Dit bericht is 6 uur en het 17 minuten geleden gemaakt, om 23:00 UTC
Verwachting geldig van 07 om 00 UTC tot 07 om 24 UTC
Wind 5 kt uit het oostnoordoosten
Zicht 10 km of meer
geen wolken onder 1500 m en geen cumulonimbus

TAF: EDFH 062300Z 0700/0724 06005KT CAVOK

Waarnemingen en weersverwachtingen van meer dan 4000 vliegvelden (METAR en TAF).

De beschikbare stations zijn de gele en rode punten op de kaart.

Ga met uw muis naar het station om de naam te zien.

Klik dan om waarnemingen en weersverwachtingen te zien.

kaart wijzigen: klik op de groene knoppen met een zwart kruis om in te zoomen, op de groene knop met een streepje om uit te zoomen of op de groene pijlen voor aangrenzende kaarten.


METAR-TAF: